sensor_id;sensor_type;location;lat;lon;timestamp;temperature;humidity
68439;SHT31;55421;51.600;5.718;2022-11-10T00:01:39;11.18;81.28
68439;SHT31;55421;51.600;5.718;2022-11-10T00:04:06;11.16;81.37
68439;SHT31;55421;51.600;5.718;2022-11-10T00:06:32;11.13;81.40
68439;SHT31;55421;51.600;5.718;2022-11-10T00:08:58;11.10;81.40
68439;SHT31;55421;51.600;5.718;2022-11-10T00:11:25;11.08;81.48
68439;SHT31;55421;51.600;5.718;2022-11-10T00:13:51;11.07;81.52
68439;SHT31;55421;51.600;5.718;2022-11-10T00:16:37;11.08;81.57
68439;SHT31;55421;51.600;5.718;2022-11-10T00:19:22;11.07;81.66
68439;SHT31;55421;51.600;5.718;2022-11-10T00:21:48;11.07;81.70
68439;SHT31;55421;51.600;5.718;2022-11-10T00:24:15;11.05;81.70
68439;SHT31;55421;51.600;5.718;2022-11-10T00:26:41;11.03;81.77
68439;SHT31;55421;51.600;5.718;2022-11-10T00:29:07;11.02;81.80
68439;SHT31;55421;51.600;5.718;2022-11-10T00:31:35;11.01;81.80
68439;SHT31;55421;51.600;5.718;2022-11-10T00:34:04;11.02;81.80
68439;SHT31;55421;51.600;5.718;2022-11-10T00:36:33;11.04;81.81
68439;SHT31;55421;51.600;5.718;2022-11-10T00:39:00;11.04;81.77
68439;SHT31;55421;51.600;5.718;2022-11-10T00:41:26;11.00;81.79
68439;SHT31;55421;51.600;5.718;2022-11-10T00:43:53;10.97;81.80
68439;SHT31;55421;51.600;5.718;2022-11-10T00:46:19;10.94;81.84
68439;SHT31;55421;51.600;5.718;2022-11-10T00:48:46;10.92;81.90
68439;SHT31;55421;51.600;5.718;2022-11-10T00:51:18;10.93;81.89
68439;SHT31;55421;51.600;5.718;2022-11-10T00:53:49;10.93;81.81
68439;SHT31;55421;51.600;5.718;2022-11-10T00:56:17;10.92;81.80
68439;SHT31;55421;51.600;5.718;2022-11-10T00:58:45;10.89;81.80
68439;SHT31;55421;51.600;5.718;2022-11-10T01:01:12;10.86;81.82
68439;SHT31;55421;51.600;5.718;2022-11-10T01:03:40;10.83;81.90
68439;SHT31;55421;51.600;5.718;2022-11-10T01:06:08;10.81;81.84
68439;SHT31;55421;51.600;5.718;2022-11-10T01:08:39;10.83;81.80
68439;SHT31;55421;51.600;5.718;2022-11-10T01:11:09;10.82;81.80
68439;SHT31;55421;51.600;5.718;2022-11-10T01:13:40;10.82;81.81
68439;SHT31;55421;51.600;5.718;2022-11-10T01:16:12;10.79;81.80
68439;SHT31;55421;51.600;5.718;2022-11-10T01:18:42;10.79;81.82
68439;SHT31;55421;51.600;5.718;2022-11-10T01:21:08;10.76;81.82
68439;SHT31;55421;51.600;5.718;2022-11-10T01:23:35;10.74;81.84
68439;SHT31;55421;51.600;5.718;2022-11-10T01:26:03;10.74;81.90
68439;SHT31;55421;51.600;5.718;2022-11-10T01:28:32;10.74;81.90
68439;SHT31;55421;51.600;5.718;2022-11-10T01:31:05;10.72;81.90
68439;SHT31;55421;51.600;5.718;2022-11-10T01:33:37;10.68;81.91
68439;SHT31;55421;51.600;5.718;2022-11-10T01:36:04;10.64;81.97
68439;SHT31;55421;51.600;5.718;2022-11-10T01:38:34;10.59;82.08
68439;SHT31;55421;51.600;5.718;2022-11-10T01:41:04;10.57;82.13
68439;SHT31;55421;51.600;5.718;2022-11-10T01:43:33;10.54;82.20
68439;SHT31;55421;51.600;5.718;2022-11-10T01:46:02;10.53;82.24
68439;SHT31;55421;51.600;5.718;2022-11-10T01:51:07;10.51;82.29
68439;SHT31;55421;51.600;5.718;2022-11-10T01:53:59;10.48;82.32
68439;SHT31;55421;51.600;5.718;2022-11-10T01:56:32;10.44;82.40
68439;SHT31;55421;51.600;5.718;2022-11-10T01:59:17;10.43;82.42
68439;SHT31;55421;51.600;5.718;2022-11-10T02:01:51;10.43;82.41
68439;SHT31;55421;51.600;5.718;2022-11-10T02:04:20;10.44;82.47
68439;SHT31;55421;51.600;5.718;2022-11-10T02:06:47;10.44;82.50
68439;SHT31;55421;51.600;5.718;2022-11-10T02:09:15;10.43;82.51
68439;SHT31;55421;51.600;5.718;2022-11-10T02:11:43;10.40;82.51
68439;SHT31;55421;51.600;5.718;2022-11-10T02:14:12;10.38;82.62
68439;SHT31;55421;51.600;5.718;2022-11-10T02:16:41;10.37;82.70
68439;SHT31;55421;51.600;5.718;2022-11-10T02:19:16;10.37;82.69
68439;SHT31;55421;51.600;5.718;2022-11-10T02:21:46;10.40;82.68
68439;SHT31;55421;51.600;5.718;2022-11-10T02:24:13;10.42;82.70
68439;SHT31;55421;51.600;5.718;2022-11-10T02:26:42;10.42;82.70
68439;SHT31;55421;51.600;5.718;2022-11-10T02:29:13;10.44;82.70
68439;SHT31;55421;51.600;5.718;2022-11-10T02:31:40;10.44;82.62
68439;SHT31;55421;51.600;5.718;2022-11-10T02:34:07;10.44;82.63
68439;SHT31;55421;51.600;5.718;2022-11-10T02:36:33;10.44;82.62
68439;SHT31;55421;51.600;5.718;2022-11-10T02:39:00;10.45;82.61
68439;SHT31;55421;51.600;5.718;2022-11-10T02:41:27;10.45;82.61
68439;SHT31;55421;51.600;5.718;2022-11-10T02:43:53;10.44;82.66
68439;SHT31;55421;51.600;5.718;2022-11-10T02:46:22;10.42;82.68
68439;SHT31;55421;51.600;5.718;2022-11-10T02:48:49;10.39;82.64
68439;SHT31;55421;51.600;5.718;2022-11-10T02:51:16;10.36;82.70
68439;SHT31;55421;51.600;5.718;2022-11-10T02:53:42;10.34;82.70
68439;SHT31;55421;51.600;5.718;2022-11-10T02:56:09;10.32;82.72
68439;SHT31;55421;51.600;5.718;2022-11-10T02:58:35;10.33;82.74
68439;SHT31;55421;51.600;5.718;2022-11-10T03:01:02;10.33;82.79
68439;SHT31;55421;51.600;5.718;2022-11-10T03:03:32;10.31;82.80
68439;SHT31;55421;51.600;5.718;2022-11-10T03:05:59;10.27;82.80
68439;SHT31;55421;51.600;5.718;2022-11-10T03:08:26;10.22;82.90
68439;SHT31;55421;51.600;5.718;2022-11-10T03:10:53;10.20;83.00
68439;SHT31;55421;51.600;5.718;2022-11-10T03:13:22;10.21;83.01
68439;SHT31;55421;51.600;5.718;2022-11-10T03:15:50;10.21;83.00
68439;SHT31;55421;51.600;5.718;2022-11-10T03:18:17;10.19;83.00
68439;SHT31;55421;51.600;5.718;2022-11-10T03:20:45;10.17;83.10
68439;SHT31;55421;51.600;5.718;2022-11-10T03:23:14;10.14;83.10
68439;SHT31;55421;51.600;5.718;2022-11-10T03:25:43;10.12;83.17
68439;SHT31;55421;51.600;5.718;2022-11-10T03:28:11;10.10;83.20
68439;SHT31;55421;51.600;5.718;2022-11-10T03:30:37;10.12;83.26
68439;SHT31;55421;51.600;5.718;2022-11-10T03:33:05;10.12;83.22
68439;SHT31;55421;51.600;5.718;2022-11-10T03:35:32;10.10;83.22
68439;SHT31;55421;51.600;5.718;2022-11-10T03:37:59;10.08;83.21
68439;SHT31;55421;51.600;5.718;2022-11-10T03:40:25;10.05;83.24
68439;SHT31;55421;51.600;5.718;2022-11-10T03:42:52;10.01;83.30
68439;SHT31;55421;51.600;5.718;2022-11-10T03:45:19;9.96;83.37
68439;SHT31;55421;51.600;5.718;2022-11-10T03:47:46;9.94;83.46
68439;SHT31;55421;51.600;5.718;2022-11-10T03:50:14;9.93;83.50
68439;SHT31;55421;51.600;5.718;2022-11-10T03:52:42;9.92;83.50
68439;SHT31;55421;51.600;5.718;2022-11-10T03:55:11;9.94;83.58
68439;SHT31;55421;51.600;5.718;2022-11-10T03:57:42;9.97;83.57
68439;SHT31;55421;51.600;5.718;2022-11-10T04:00:09;9.96;83.50
68439;SHT31;55421;51.600;5.718;2022-11-10T04:02:38;9.95;83.50
68439;SHT31;55421;51.600;5.718;2022-11-10T04:05:05;9.94;83.50
68439;SHT31;55421;51.600;5.718;2022-11-10T04:07:55;9.93;83.60
68439;SHT31;55421;51.600;5.718;2022-11-10T04:10:45;9.95;83.65
68439;SHT31;55421;51.600;5.718;2022-11-10T04:13:12;9.97;83.65
68439;SHT31;55421;51.600;5.718;2022-11-10T04:15:57;9.98;83.69
68439;SHT31;55421;51.600;5.718;2022-11-10T04:18:23;9.98;83.61
68439;SHT31;55421;51.600;5.718;2022-11-10T04:20:51;9.94;83.59
68439;SHT31;55421;51.600;5.718;2022-11-10T04:23:25;9.92;83.68
68439;SHT31;55421;51.600;5.718;2022-11-10T04:26:00;9.90;83.71
68439;SHT31;55421;51.600;5.718;2022-11-10T04:28:50;9.89;83.79
68439;SHT31;55421;51.600;5.718;2022-11-10T04:31:23;9.90;83.88
68439;SHT31;55421;51.600;5.718;2022-11-10T04:33:52;9.89;83.88
68439;SHT31;55421;51.600;5.718;2022-11-10T04:36:25;9.86;83.80
68439;SHT31;55421;51.600;5.718;2022-11-10T04:38:55;9.83;83.90
68439;SHT31;55421;51.600;5.718;2022-11-10T04:41:22;9.81;83.99
68439;SHT31;55421;51.600;5.718;2022-11-10T04:43:51;9.81;84.02
68439;SHT31;55421;51.600;5.718;2022-11-10T04:49:03;9.85;84.00
68439;SHT31;55421;51.600;5.718;2022-11-10T04:51:33;9.86;84.00
68439;SHT31;55421;51.600;5.718;2022-11-10T04:54:03;9.86;84.00
68439;SHT31;55421;51.600;5.718;2022-11-10T04:56:32;9.86;83.97
68439;SHT31;55421;51.600;5.718;2022-11-10T04:58:59;9.83;83.90
68439;SHT31;55421;51.600;5.718;2022-11-10T05:01:26;9.80;83.90
68439;SHT31;55421;51.600;5.718;2022-11-10T05:03:54;9.79;83.91
68439;SHT31;55421;51.600;5.718;2022-11-10T05:06:21;9.79;83.96
68439;SHT31;55421;51.600;5.718;2022-11-10T05:08:48;9.82;83.99
68439;SHT31;55421;51.600;5.718;2022-11-10T05:11:16;9.84;83.98
68439;SHT31;55421;51.600;5.718;2022-11-10T05:13:43;9.83;83.89
68439;SHT31;55421;51.600;5.718;2022-11-10T05:16:11;9.83;83.89
68439;SHT31;55421;51.600;5.718;2022-11-10T05:18:39;9.81;83.83
68439;SHT31;55421;51.600;5.718;2022-11-10T05:21:06;9.82;83.80
68439;SHT31;55421;51.600;5.718;2022-11-10T05:23:32;9.85;83.78
68439;SHT31;55421;51.600;5.718;2022-11-10T05:26:06;9.87;83.70
68439;SHT31;55421;51.600;5.718;2022-11-10T05:28:37;9.87;83.78
68439;SHT31;55421;51.600;5.718;2022-11-10T05:31:06;9.86;83.80
68439;SHT31;55421;51.600;5.718;2022-11-10T05:33:34;9.84;83.80
68439;SHT31;55421;51.600;5.718;2022-11-10T05:36:03;9.80;83.81
68439;SHT31;55421;51.600;5.718;2022-11-10T05:38:32;9.78;83.85
68439;SHT31;55421;51.600;5.718;2022-11-10T05:40:59;9.77;83.88
68439;SHT31;55421;51.600;5.718;2022-11-10T05:43:25;9.77;83.92
68439;SHT31;55421;51.600;5.718;2022-11-10T05:45:52;9.76;83.94
68439;SHT31;55421;51.600;5.718;2022-11-10T05:48:19;9.74;83.97
68439;SHT31;55421;51.600;5.718;2022-11-10T05:50:45;9.71;84.06
68439;SHT31;55421;51.600;5.718;2022-11-10T05:53:12;9.68;84.10
68439;SHT31;55421;51.600;5.718;2022-11-10T05:55:39;9.67;84.19
68439;SHT31;55421;51.600;5.718;2022-11-10T05:58:05;9.67;84.19
68439;SHT31;55421;51.600;5.718;2022-11-10T06:00:32;9.69;84.18
68439;SHT31;55421;51.600;5.718;2022-11-10T06:03:00;9.68;84.14
68439;SHT31;55421;51.600;5.718;2022-11-10T06:05:43;9.64;84.20
68439;SHT31;55421;51.600;5.718;2022-11-10T06:08:16;9.62;84.32
68439;SHT31;55421;51.600;5.718;2022-11-10T06:10:43;9.58;84.40
68439;SHT31;55421;51.600;5.718;2022-11-10T06:13:10;9.59;84.47
68439;SHT31;55421;51.600;5.718;2022-11-10T06:15:36;9.58;84.50
68439;SHT31;55421;51.600;5.718;2022-11-10T06:18:03;9.59;84.50
68439;SHT31;55421;51.600;5.718;2022-11-10T06:20:29;9.60;84.50
68439;SHT31;55421;51.600;5.718;2022-11-10T06:23:02;9.59;84.50
68439;SHT31;55421;51.600;5.718;2022-11-10T06:25:33;9.57;84.53
68439;SHT31;55421;51.600;5.718;2022-11-10T06:28:03;9.54;84.57
68439;SHT31;55421;51.600;5.718;2022-11-10T06:30:32;9.53;84.60
68439;SHT31;55421;51.600;5.718;2022-11-10T06:33:00;9.54;84.60
68439;SHT31;55421;51.600;5.718;2022-11-10T06:35:28;9.57;84.65
68439;SHT31;55421;51.600;5.718;2022-11-10T06:37:59;9.61;84.77
68439;SHT31;55421;51.600;5.718;2022-11-10T06:40:28;9.61;84.70
68439;SHT31;55421;51.600;5.718;2022-11-10T06:42:56;9.60;84.70
68439;SHT31;55421;51.600;5.718;2022-11-10T06:45:23;9.59;84.74
68439;SHT31;55421;51.600;5.718;2022-11-10T06:48:06;9.59;84.71
68439;SHT31;55421;51.600;5.718;2022-11-10T06:50:38;9.60;84.79
68439;SHT31;55421;51.600;5.718;2022-11-10T06:53:05;9.63;84.80
68439;SHT31;55421;51.600;5.718;2022-11-10T06:55:32;9.65;84.80
68439;SHT31;55421;51.600;5.718;2022-11-10T06:57:59;9.68;84.81
68439;SHT31;55421;51.600;5.718;2022-11-10T07:00:25;9.69;84.80
68439;SHT31;55421;51.600;5.718;2022-11-10T07:02:58;9.71;84.80
68439;SHT31;55421;51.600;5.718;2022-11-10T07:05:34;9.74;84.71
68439;SHT31;55421;51.600;5.718;2022-11-10T07:08:02;9.76;84.74
68439;SHT31;55421;51.600;5.718;2022-11-10T07:10:32;9.78;84.74
68439;SHT31;55421;51.600;5.718;2022-11-10T07:13:01;9.79;84.71
68439;SHT31;55421;51.600;5.718;2022-11-10T07:15:29;9.81;84.72
68439;SHT31;55421;51.600;5.718;2022-11-10T07:17:56;9.81;84.63
68439;SHT31;55421;51.600;5.718;2022-11-10T07:20:26;9.82;84.64
68439;SHT31;55421;51.600;5.718;2022-11-10T07:22:57;9.85;84.60
68439;SHT31;55421;51.600;5.718;2022-11-10T07:25:26;9.87;84.59
68439;SHT31;55421;51.600;5.718;2022-11-10T07:28:01;9.90;84.62
68439;SHT31;55421;51.600;5.718;2022-11-10T07:30:32;9.93;84.62
68439;SHT31;55421;51.600;5.718;2022-11-10T07:33:00;9.94;84.60
68439;SHT31;55421;51.600;5.718;2022-11-10T07:35:30;9.95;84.58
68439;SHT31;55421;51.600;5.718;2022-11-10T07:38:02;9.95;84.56
68439;SHT31;55421;51.600;5.718;2022-11-10T07:40:33;9.96;84.50
68439;SHT31;55421;51.600;5.718;2022-11-10T07:43:00;9.97;84.48
68439;SHT31;55421;51.600;5.718;2022-11-10T07:45:27;10.02;84.50
68439;SHT31;55421;51.600;5.718;2022-11-10T07:47:58;10.06;84.50
68439;SHT31;55421;51.600;5.718;2022-11-10T07:50:32;10.09;84.49
68439;SHT31;55421;51.600;5.718;2022-11-10T07:53:03;10.11;84.42
68439;SHT31;55421;51.600;5.718;2022-11-10T07:55:38;10.14;84.50
68439;SHT31;55421;51.600;5.718;2022-11-10T07:58:07;10.19;84.45
68439;SHT31;55421;51.600;5.718;2022-11-10T08:00:35;10.24;84.39
68439;SHT31;55421;51.600;5.718;2022-11-10T08:03:04;10.30;84.32
68439;SHT31;55421;51.600;5.718;2022-11-10T08:05:32;10.38;84.33
68439;SHT31;55421;51.600;5.718;2022-11-10T08:07:59;10.45;84.25
68439;SHT31;55421;51.600;5.718;2022-11-10T08:10:27;10.49;84.13
68439;SHT31;55421;51.600;5.718;2022-11-10T08:12:55;10.53;84.05
68439;SHT31;55421;51.600;5.718;2022-11-10T08:15:24;10.58;83.95
68439;SHT31;55421;51.600;5.718;2022-11-10T08:18:00;10.63;83.88
68439;SHT31;55421;51.600;5.718;2022-11-10T08:20:32;10.69;83.86
68439;SHT31;55421;51.600;5.718;2022-11-10T08:23:00;10.74;83.80
68439;SHT31;55421;51.600;5.718;2022-11-10T08:25:30;10.79;83.71
68439;SHT31;55421;51.600;5.718;2022-11-10T08:28:03;10.82;83.65
68439;SHT31;55421;51.600;5.718;2022-11-10T08:30:35;10.83;83.54
68439;SHT31;55421;51.600;5.718;2022-11-10T08:33:04;10.87;83.50
68439;SHT31;55421;51.600;5.718;2022-11-10T08:35:36;10.93;83.47
68439;SHT31;55421;51.600;5.718;2022-11-10T08:38:12;11.00;83.43
68439;SHT31;55421;51.600;5.718;2022-11-10T08:40:40;11.05;83.35
68439;SHT31;55421;51.600;5.718;2022-11-10T08:43:08;11.11;83.30
68439;SHT31;55421;51.600;5.718;2022-11-10T08:45:37;11.16;83.25
68439;SHT31;55421;51.600;5.718;2022-11-10T08:48:07;11.19;83.12
68439;SHT31;55421;51.600;5.718;2022-11-10T08:50:45;11.25;83.07
68439;SHT31;55421;51.600;5.718;2022-11-10T08:53:15;11.31;82.97
68439;SHT31;55421;51.600;5.718;2022-11-10T08:55:46;11.34;82.86
68439;SHT31;55421;51.600;5.718;2022-11-10T08:58:14;11.40;82.80
68439;SHT31;55421;51.600;5.718;2022-11-10T09:00:44;11.43;82.71
68439;SHT31;55421;51.600;5.718;2022-11-10T09:03:29;11.48;82.70
68439;SHT31;55421;51.600;5.718;2022-11-10T09:05:55;11.51;82.60
68439;SHT31;55421;51.600;5.718;2022-11-10T09:08:22;11.55;82.53
68439;SHT31;55421;51.600;5.718;2022-11-10T09:10:49;11.61;82.49
68439;SHT31;55421;51.600;5.718;2022-11-10T09:13:16;11.66;82.42
68439;SHT31;55421;51.600;5.718;2022-11-10T09:15:44;11.70;82.30
68439;SHT31;55421;51.600;5.718;2022-11-10T09:18:11;11.72;82.28
68439;SHT31;55421;51.600;5.718;2022-11-10T09:20:39;11.74;82.24
68439;SHT31;55421;51.600;5.718;2022-11-10T09:23:08;11.77;82.23
68439;SHT31;55421;51.600;5.718;2022-11-10T09:25:41;11.81;82.24
68439;SHT31;55421;51.600;5.718;2022-11-10T09:28:14;11.86;82.14
68439;SHT31;55421;51.600;5.718;2022-11-10T09:30:44;11.93;82.06
68439;SHT31;55421;51.600;5.718;2022-11-10T09:33:12;12.00;81.94
68439;SHT31;55421;51.600;5.718;2022-11-10T09:35:39;12.07;81.84
68439;SHT31;55421;51.600;5.718;2022-11-10T09:38:06;12.13;81.84
68439;SHT31;55421;51.600;5.718;2022-11-10T09:43:25;12.21;81.74
68439;SHT31;55421;51.600;5.718;2022-11-10T09:46:00;12.26;81.68
68439;SHT31;55421;51.600;5.718;2022-11-10T09:48:40;12.32;81.66
68439;SHT31;55421;51.600;5.718;2022-11-10T09:51:17;12.41;81.47
68439;SHT31;55421;51.600;5.718;2022-11-10T09:53:54;12.48;81.30
68439;SHT31;55421;51.600;5.718;2022-11-10T09:56:42;12.57;81.22
68439;SHT31;55421;51.600;5.718;2022-11-10T09:59:16;12.63;81.05
68439;SHT31;55421;51.600;5.718;2022-11-10T10:01:54;12.68;80.94
68439;SHT31;55421;51.600;5.718;2022-11-10T10:04:43;12.74;80.79
68439;SHT31;55421;51.600;5.718;2022-11-10T10:10:14;12.88;80.60
68439;SHT31;55421;51.600;5.718;2022-11-10T10:18:28;13.16;80.16
68439;SHT31;55421;51.600;5.718;2022-11-10T10:24:16;13.28;79.64
68439;SHT31;55421;51.600;5.718;2022-11-10T10:26:52;13.36;79.33
68439;SHT31;55421;51.600;5.718;2022-11-10T10:29:22;13.41;79.16
68439;SHT31;55421;51.600;5.718;2022-11-10T10:31:55;13.46;79.09
68439;SHT31;55421;51.600;5.718;2022-11-10T10:34:25;13.52;78.98
68439;SHT31;55421;51.600;5.718;2022-11-10T10:36:54;13.57;78.86
68439;SHT31;55421;51.600;5.718;2022-11-10T10:42:08;13.69;78.32
68439;SHT31;55421;51.600;5.718;2022-11-10T10:47:57;13.84;78.12
68439;SHT31;55421;51.600;5.718;2022-11-10T10:50:29;13.90;78.05
68439;SHT31;55421;51.600;5.718;2022-11-10T10:53:05;13.96;77.74
68439;SHT31;55421;51.600;5.718;2022-11-10T10:55:33;14.01;77.68
68439;SHT31;55421;51.600;5.718;2022-11-10T10:58:03;14.07;77.52
68439;SHT31;55421;51.600;5.718;2022-11-10T11:00:44;14.12;77.20
68439;SHT31;55421;51.600;5.718;2022-11-10T11:03:27;14.13;76.96
68439;SHT31;55421;51.600;5.718;2022-11-10T11:06:00;14.14;77.01
68439;SHT31;55421;51.600;5.718;2022-11-10T11:08:52;14.14;76.94
68439;SHT31;55421;51.600;5.718;2022-11-10T11:11:22;14.15;77.12
68439;SHT31;55421;51.600;5.718;2022-11-10T11:14:16;14.16;77.13
68439;SHT31;55421;51.600;5.718;2022-11-10T11:16:50;14.19;76.60
68439;SHT31;55421;51.600;5.718;2022-11-10T11:19:37;14.20;76.14
68439;SHT31;55421;51.600;5.718;2022-11-10T11:25:21;14.25;76.07
68439;SHT31;55421;51.600;5.718;2022-11-10T11:37:02;14.49;75.87
68439;SHT31;55421;51.600;5.718;2022-11-10T11:39:59;14.57;75.52
68439;SHT31;55421;51.600;5.718;2022-11-10T11:56:20;14.85;73.94
68439;SHT31;55421;51.600;5.718;2022-11-10T12:26:59;14.94;73.24
68439;SHT31;55421;51.600;5.718;2022-11-10T12:29:47;14.98;73.03
68439;SHT31;55421;51.600;5.718;2022-11-10T12:32:25;15.01;72.83
68439;SHT31;55421;51.600;5.718;2022-11-10T12:35:18;15.03;72.70
68439;SHT31;55421;51.600;5.718;2022-11-10T12:38:22;15.02;72.75
68439;SHT31;55421;51.600;5.718;2022-11-10T12:41:06;15.01;72.99
68439;SHT31;55421;51.600;5.718;2022-11-10T12:43:55;15.00;72.77
68439;SHT31;55421;51.600;5.718;2022-11-10T12:46:49;15.05;72.49
68439;SHT31;55421;51.600;5.718;2022-11-10T12:49:34;15.09;72.26
68439;SHT31;55421;51.600;5.718;2022-11-10T12:52:14;15.16;72.13
68439;SHT31;55421;51.600;5.718;2022-11-10T12:54:48;15.22;71.68
68439;SHT31;55421;51.600;5.718;2022-11-10T12:57:16;15.27;71.49
68439;SHT31;55421;51.600;5.718;2022-11-10T13:02:53;15.37;71.14
68439;SHT31;55421;51.600;5.718;2022-11-10T13:05:25;15.39;70.97
68439;SHT31;55421;51.600;5.718;2022-11-10T13:16:44;15.50;70.47
68439;SHT31;55421;51.600;5.718;2022-11-10T13:27:02;15.51;69.89
68439;SHT31;55421;51.600;5.718;2022-11-10T13:34:42;15.29;69.18
68439;SHT31;55421;51.600;5.718;2022-11-10T13:45:27;15.09;69.47
68439;SHT31;55421;51.600;5.718;2022-11-10T13:53:43;15.03;69.24
68439;SHT31;55421;51.600;5.718;2022-11-10T13:56:40;15.00;69.35
68439;SHT31;55421;51.600;5.718;2022-11-10T13:59:49;14.96;69.50
68439;SHT31;55421;51.600;5.718;2022-11-10T14:04:59;14.89;69.63
68439;SHT31;55421;51.600;5.718;2022-11-10T14:07:34;14.88;69.66
68439;SHT31;55421;51.600;5.718;2022-11-10T14:10:09;14.88;69.61
68439;SHT31;55421;51.600;5.718;2022-11-10T14:12:46;14.88;69.48
68439;SHT31;55421;51.600;5.718;2022-11-10T14:15:21;14.89;69.42
68439;SHT31;55421;51.600;5.718;2022-11-10T14:18:24;14.88;69.47
68439;SHT31;55421;51.600;5.718;2022-11-10T14:20:59;14.85;69.56
68439;SHT31;55421;51.600;5.718;2022-11-10T14:23:46;14.84;69.54
68439;SHT31;55421;51.600;5.718;2022-11-10T14:26:30;14.81;69.77
68439;SHT31;55421;51.600;5.718;2022-11-10T14:32:19;14.72;69.83
68439;SHT31;55421;51.600;5.718;2022-11-10T14:34:50;14.68;69.80
68439;SHT31;55421;51.600;5.718;2022-11-10T14:37:21;14.68;69.82
68439;SHT31;55421;51.600;5.718;2022-11-10T14:39:50;14.67;69.98
68439;SHT31;55421;51.600;5.718;2022-11-10T14:42:23;14.68;70.04
68439;SHT31;55421;51.600;5.718;2022-11-10T14:45:04;14.68;70.00
68439;SHT31;55421;51.600;5.718;2022-11-10T14:47:49;14.67;70.05
68439;SHT31;55421;51.600;5.718;2022-11-10T14:50:29;14.66;70.17
68439;SHT31;55421;51.600;5.718;2022-11-10T14:53:06;14.63;70.20
68439;SHT31;55421;51.600;5.718;2022-11-10T14:55:45;14.60;70.18
68439;SHT31;55421;51.600;5.718;2022-11-10T14:58:37;14.58;70.18
68439;SHT31;55421;51.600;5.718;2022-11-10T15:01:05;14.56;70.19
68439;SHT31;55421;51.600;5.718;2022-11-10T15:03:39;14.53;70.11
68439;SHT31;55421;51.600;5.718;2022-11-10T15:06:08;14.51;70.22
68439;SHT31;55421;51.600;5.718;2022-11-10T15:08:38;14.52;70.26
68439;SHT31;55421;51.600;5.718;2022-11-10T15:11:06;14.52;70.22
68439;SHT31;55421;51.600;5.718;2022-11-10T15:14:02;14.49;70.22
68439;SHT31;55421;51.600;5.718;2022-11-10T15:16:30;14.47;70.36
68439;SHT31;55421;51.600;5.718;2022-11-10T15:19:20;14.43;70.49
68439;SHT31;55421;51.600;5.718;2022-11-10T15:22:03;14.38;70.60
68439;SHT31;55421;51.600;5.718;2022-11-10T15:24:45;14.31;70.66
68439;SHT31;55421;51.600;5.718;2022-11-10T15:27:24;14.25;70.78
68439;SHT31;55421;51.600;5.718;2022-11-10T15:29:57;14.18;70.96
68439;SHT31;55421;51.600;5.718;2022-11-10T15:32:31;14.11;71.14
68439;SHT31;55421;51.600;5.718;2022-11-10T15:38:04;14.01;71.47
68439;SHT31;55421;51.600;5.718;2022-11-10T15:40:51;13.99;71.54
68439;SHT31;55421;51.600;5.718;2022-11-10T15:43:31;13.98;71.60
68439;SHT31;55421;51.600;5.718;2022-11-10T15:45:59;13.95;71.72
68439;SHT31;55421;51.600;5.718;2022-11-10T15:48:30;13.91;71.80
68439;SHT31;55421;51.600;5.718;2022-11-10T15:51:05;13.87;71.87
68439;SHT31;55421;51.600;5.718;2022-11-10T15:53:36;13.81;71.92
68439;SHT31;55421;51.600;5.718;2022-11-10T15:56:06;13.74;72.06
68439;SHT31;55421;51.600;5.718;2022-11-10T15:58:38;13.66;72.19
68439;SHT31;55421;51.600;5.718;2022-11-10T16:01:04;13.58;72.33
68439;SHT31;55421;51.600;5.718;2022-11-10T16:03:31;13.54;72.43
68439;SHT31;55421;51.600;5.718;2022-11-10T16:05:58;13.49;72.51
68439;SHT31;55421;51.600;5.718;2022-11-10T16:08:25;13.47;72.60
68439;SHT31;55421;51.600;5.718;2022-11-10T16:10:52;13.45;72.70
68439;SHT31;55421;51.600;5.718;2022-11-10T16:13:23;13.43;72.71
68439;SHT31;55421;51.600;5.718;2022-11-10T16:15:53;13.39;72.82
68439;SHT31;55421;51.600;5.718;2022-11-10T16:18:22;13.35;72.88
68439;SHT31;55421;51.600;5.718;2022-11-10T16:20:51;13.30;72.99
68439;SHT31;55421;51.600;5.718;2022-11-10T16:23:18;13.24;73.06
68439;SHT31;55421;51.600;5.718;2022-11-10T16:25:46;13.20;73.10
68439;SHT31;55421;51.600;5.718;2022-11-10T16:28:18;13.18;73.22
68439;SHT31;55421;51.600;5.718;2022-11-10T16:30:47;13.16;73.30
68439;SHT31;55421;51.600;5.718;2022-11-10T16:33:16;13.13;73.31
68439;SHT31;55421;51.600;5.718;2022-11-10T16:35:47;13.12;73.41
68439;SHT31;55421;51.600;5.718;2022-11-10T16:38:21;13.10;73.46
68439;SHT31;55421;51.600;5.718;2022-11-10T16:41:00;13.06;73.50
68439;SHT31;55421;51.600;5.718;2022-11-10T16:43:29;13.01;73.56
68439;SHT31;55421;51.600;5.718;2022-11-10T16:45:57;12.96;73.68
68439;SHT31;55421;51.600;5.718;2022-11-10T16:48:33;12.93;73.80
68439;SHT31;55421;51.600;5.718;2022-11-10T16:51:01;12.88;73.90
68439;SHT31;55421;51.600;5.718;2022-11-10T16:53:29;12.86;74.01
68439;SHT31;55421;51.600;5.718;2022-11-10T16:55:57;12.86;74.10
68439;SHT31;55421;51.600;5.718;2022-11-10T16:58:24;12.86;74.17
68439;SHT31;55421;51.600;5.718;2022-11-10T17:00:52;12.86;74.20
68439;SHT31;55421;51.600;5.718;2022-11-10T17:06:18;12.83;74.30
68439;SHT31;55421;51.600;5.718;2022-11-10T17:08:48;12.80;74.40
68439;SHT31;55421;51.600;5.718;2022-11-10T17:11:18;12.79;74.46
68439;SHT31;55421;51.600;5.718;2022-11-10T17:13:44;12.75;74.53
68439;SHT31;55421;51.600;5.718;2022-11-10T17:16:24;12.70;74.63
68439;SHT31;55421;51.600;5.718;2022-11-10T17:18:56;12.67;74.75
68439;SHT31;55421;51.600;5.718;2022-11-10T17:21:26;12.66;74.82
68439;SHT31;55421;51.600;5.718;2022-11-10T17:23:55;12.66;74.91
68439;SHT31;55421;51.600;5.718;2022-11-10T17:26:22;12.66;75.00
68439;SHT31;55421;51.600;5.718;2022-11-10T17:28:48;12.65;75.02
68439;SHT31;55421;51.600;5.718;2022-11-10T17:31:15;12.63;75.09
68439;SHT31;55421;51.600;5.718;2022-11-10T17:33:41;12.60;75.14
68439;SHT31;55421;51.600;5.718;2022-11-10T17:36:12;12.57;75.23
68439;SHT31;55421;51.600;5.718;2022-11-10T17:38:44;12.52;75.30
68439;SHT31;55421;51.600;5.718;2022-11-10T17:41:14;12.51;75.34
68439;SHT31;55421;51.600;5.718;2022-11-10T17:43:43;12.53;75.40
68439;SHT31;55421;51.600;5.718;2022-11-10T17:46:12;12.53;75.42
68439;SHT31;55421;51.600;5.718;2022-11-10T17:48:40;12.53;75.42
68439;SHT31;55421;51.600;5.718;2022-11-10T17:51:08;12.51;75.45
68439;SHT31;55421;51.600;5.718;2022-11-10T17:53:43;12.49;75.50
68439;SHT31;55421;51.600;5.718;2022-11-10T17:56:09;12.44;75.54
68439;SHT31;55421;51.600;5.718;2022-11-10T17:58:36;12.41;75.61
68439;SHT31;55421;51.600;5.718;2022-11-10T18:01:09;12.37;75.69
68439;SHT31;55421;51.600;5.718;2022-11-10T18:03:44;12.35;75.78
68439;SHT31;55421;51.600;5.718;2022-11-10T18:06:15;12.34;75.79
68439;SHT31;55421;51.600;5.718;2022-11-10T18:08:44;12.34;75.80
68439;SHT31;55421;51.600;5.718;2022-11-10T18:11:13;12.35;75.85
68439;SHT31;55421;51.600;5.718;2022-11-10T18:13:43;12.34;75.90